Time;durP1;ratioP1;P1;durP2;ratioP2;P2;SDS_P1;SDS_P2;PMS_P1;PMS_P2;Temp;Humidity;BMP_temperature;BMP_pressure;BME280_temperature;BME280_humidity;BME280_pressure;Samples;Min_cycle;Max_cycle;Signal;HPM_P1;HPM_P2
2022/05/08 00:00:54;;;;;;;22.23;11.00;;;;;;;11.89;100.00;102546.41;5288594;28;20071;-71
2022/05/08 00:03:25;;;;;;;25.35;12.15;;;;;;;11.86;100.00;102545.84;5273219;28;20035;-71
2022/05/08 00:05:55;;;;;;;28.92;11.65;;;;;;;11.84;100.00;102545.97;5269535;28;20055;-71
2022/05/08 00:08:28;;;;;;;23.65;11.35;;;;;;;11.80;100.00;102549.91;5271854;28;20020;-71
2022/05/08 00:10:59;;;;;;;22.55;12.25;;;;;;;11.77;100.00;102546.59;5267193;28;20666;-71
2022/05/08 00:13:31;;;;;;;27.73;11.73;;;;;;;11.75;100.00;102545.91;5280651;28;20035;-71
2022/05/08 00:16:03;;;;;;;21.02;11.80;;;;;;;11.70;100.00;102546.28;5273150;28;20035;-71
2022/05/08 00:18:33;;;;;;;23.90;11.57;;;;;;;11.67;100.00;102543.84;5273279;28;20016;-70
2022/05/08 00:21:05;;;;;;;27.13;12.02;;;;;;;11.66;100.00;102542.16;5274643;28;20020;-71
2022/05/08 00:23:35;;;;;;;24.20;10.98;;;;;;;11.62;100.00;102546.09;5287790;28;20362;-71
2022/05/08 00:26:08;;;;;;;23.17;12.15;;;;;;;11.58;100.00;102547.34;5273943;28;20085;-71
2022/05/08 00:28:38;;;;;;;20.10;11.55;;;;;;;11.56;100.00;102550.16;5279231;28;20032;-71
2022/05/08 00:31:10;;;;;;;17.45;9.85;;;;;;;11.53;100.00;102550.41;5266669;28;20390;-70
2022/05/08 00:33:41;;;;;;;21.17;10.75;;;;;;;11.49;100.00;102557.03;5277034;28;20206;-71
2022/05/08 00:36:11;;;;;;;15.95;9.13;;;;;;;11.47;100.00;102553.63;5273653;28;20486;-71
2022/05/08 00:38:42;;;;;;;18.02;10.23;;;;;;;11.45;100.00;102558.28;5275727;28;20358;-71
2022/05/08 00:41:12;;;;;;;16.98;9.93;;;;;;;11.41;100.00;102546.09;5271486;28;20540;-71
2022/05/08 00:43:43;;;;;;;20.80;10.73;;;;;;;11.38;100.00;102557.09;5274986;28;20028;-71
2022/05/08 00:46:14;;;;;;;26.55;10.18;;;;;;;11.34;100.00;102556.50;5280134;28;20108;-71
2022/05/08 00:48:46;;;;;;;16.80;9.63;;;;;;;11.31;100.00;102558.59;5280052;28;20110;-71
2022/05/08 00:51:17;;;;;;;21.30;10.43;;;;;;;11.26;100.00;102555.44;5265152;28;20054;-70
2022/05/08 00:53:51;;;;;;;17.98;9.15;;;;;;;11.21;100.00;102555.84;5280700;28;20056;-71
2022/05/08 00:56:22;;;;;;;23.10;9.98;;;;;;;11.20;100.00;102561.34;5277794;28;20028;-70
2022/05/08 00:58:54;;;;;;;17.80;9.65;;;;;;;11.23;100.00;102561.94;5280306;28;20564;-70
2022/05/08 01:01:24;;;;;;;19.77;9.82;;;;;;;11.24;100.00;102558.25;5277501;28;20027;-69
2022/05/08 01:03:55;;;;;;;19.75;9.13;;;;;;;11.24;100.00;102566.31;5273670;28;20499;-70
2022/05/08 01:06:26;;;;;;;15.93;8.90;;;;;;;11.19;100.00;102565.00;5287677;28;20031;-70
2022/05/08 01:08:57;;;;;;;18.42;8.38;;;;;;;11.14;100.00;102558.19;5281676;28;20020;-70
2022/05/08 01:11:33;;;;;;;21.67;9.75;;;;;;;11.09;100.00;102548.78;5280344;28;20016;-71
2022/05/08 01:14:13;;;;;;;16.30;8.05;;;;;;;11.09;100.00;102555.03;5275272;28;20028;-71
2022/05/08 01:16:44;;;;;;;15.75;8.93;;;;;;;11.07;100.00;102558.81;5284232;28;20085;-71
2022/05/08 01:19:16;;;;;;;13.95;8.07;;;;;;;11.02;100.00;102553.84;5277078;28;20020;-70
2022/05/08 01:21:46;;;;;;;17.55;9.00;;;;;;;11.00;100.00;102555.81;5273429;28;20110;-70
2022/05/08 01:24:22;;;;;;;17.63;8.50;;;;;;;10.96;100.00;102562.41;5275625;27;20111;-70
2022/05/08 01:26:52;;;;;;;;;;;;;;;10.93;100.00;102561.78;5280163;28;20028;-70
2022/05/08 01:29:23;;;;;;;19.10;8.43;;;;;;;10.90;100.00;102568.28;5279984;28;19915;-71
2022/05/08 01:31:53;;;;;;;16.77;8.18;;;;;;;10.88;100.00;102567.53;5279582;28;20020;-70
2022/05/08 01:34:24;;;;;;;17.08;8.15;;;;;;;10.84;100.00;102553.53;5265849;28;20039;-70
2022/05/08 01:36:54;;;;;;;13.40;6.75;;;;;;;10.81;100.00;102560.97;5275058;28;20026;-70
2022/05/08 01:39:24;;;;;;;14.52;7.60;;;;;;;10.80;100.00;102559.28;5268861;28;20273;-69
2022/05/08 01:41:55;;;;;;;14.25;7.40;;;;;;;10.79;100.00;102561.13;5277653;28;20031;-70
2022/05/08 01:44:26;;;;;;;14.38;7.57;;;;;;;10.78;100.00;102559.38;5273230;28;20103;-70
2022/05/08 01:49:46;;;;;;;14.68;7.38;;;;;;;10.81;100.00;102564.53;5275307;28;20023;-69
2022/05/08 01:52:16;;;;;;;15.43;6.75;;;;;;;10.87;100.00;102568.53;5273233;28;20031;-69
2022/05/08 01:54:47;;;;;;;13.70;6.57;;;;;;;10.81;100.00;102575.25;5276033;28;20373;-71
2022/05/08 01:57:18;;;;;;;17.65;7.28;;;;;;;10.78;100.00;102577.34;5269077;28;20023;-70
2022/05/08 01:59:48;;;;;;;13.00;6.75;;;;;;;10.75;100.00;102574.91;5274714;28;20469;-70
2022/05/08 02:02:19;;;;;;;13.82;6.68;;;;;;;10.70;100.00;102577.97;5285296;28;20031;-69
2022/05/08 02:04:50;;;;;;;22.17;8.07;;;;;;;10.69;100.00;102578.06;5273915;28;20105;-70
2022/05/08 02:07:21;;;;;;;17.55;7.10;;;;;;;10.68;100.00;102582.59;5277138;28;20024;-70
2022/05/08 02:09:51;;;;;;;12.00;6.40;;;;;;;10.68;100.00;102579.91;5271372;28;20107;-71
2022/05/08 02:12:24;;;;;;;19.35;7.10;;;;;;;10.65;100.00;102582.88;5291594;28;20023;-70
2022/05/08 02:14:58;;;;;;;18.45;7.07;;;;;;;10.58;100.00;102579.81;5286939;28;20032;-71
2022/05/08 02:17:28;;;;;;;14.95;7.80;;;;;;;10.56;100.00;102581.78;5269868;28;20043;-71
2022/05/08 02:19:59;;;;;;;15.18;7.00;;;;;;;10.58;100.00;102578.94;5283489;28;20020;-70
2022/05/08 02:22:29;;;;;;;16.52;7.30;;;;;;;10.59;100.00;102580.66;5281668;28;20047;-71
2022/05/08 02:25:00;;;;;;;14.85;6.57;;;;;;;10.61;100.00;102576.88;5276650;28;20019;-70
2022/05/08 02:30:33;;;;;;;19.65;7.43;;;;;;;10.76;100.00;102585.53;5279171;27;20032;-70
2022/05/08 02:33:04;;;;;;;14.40;7.00;;;;;;;10.83;100.00;102581.34;5283197;28;20024;-70
2022/05/08 02:35:35;;;;;;;13.10;6.75;;;;;;;10.90;100.00;102581.72;5269416;28;20024;-71
2022/05/08 02:38:06;;;;;;;16.20;6.72;;;;;;;10.96;100.00;102573.16;5275537;28;20023;-70
2022/05/08 02:40:36;;;;;;;14.40;6.30;;;;;;;11.06;100.00;102579.47;5276781;28;20028;-70
2022/05/08 02:43:07;;;;;;;14.38;6.55;;;;;;;11.13;100.00;102580.66;5283263;28;20028;-70
2022/05/08 02:45:37;;;;;;;18.38;7.05;;;;;;;11.21;100.00;102571.09;5282996;28;20020;-70
2022/05/08 02:48:08;;;;;;;17.50;6.35;;;;;;;11.28;100.00;102577.66;5277188;28;20070;-71
2022/05/08 02:50:39;;;;;;;18.88;7.13;;;;;;;11.34;100.00;102574.44;5272627;28;20073;-70
2022/05/08 02:53:09;;;;;;;13.57;6.70;;;;;;;11.40;100.00;102573.97;5280179;28;20024;-70
2022/05/08 03:01:17;;;;;;;14.38;6.50;;;;;;;11.44;100.00;102569.16;5291578;28;20027;-72
2022/05/08 03:03:48;;;;;;;20.20;6.93;;;;;;;11.38;100.00;102568.69;5271456;28;20381;-71
2022/05/08 03:06:19;;;;;;;14.05;7.03;;;;;;;11.33;100.00;102572.75;5279013;27;20023;-70
2022/05/08 03:08:52;;;;;;;23.52;7.75;;;;;;;11.26;100.00;102569.75;5277749;27;20431;-70
2022/05/08 03:14:09;;;;;;;16.02;7.50;;;;;;;11.12;100.00;102575.41;5289761;27;20507;-71
2022/05/08 03:16:41;;;;;;;16.02;7.85;;;;;;;11.07;100.00;102572.25;5275632;28;20431;-71
2022/05/08 03:19:13;;;;;;;14.85;6.75;;;;;;;11.02;100.00;102572.63;5279688;28;20008;-71
2022/05/08 03:21:43;;;;;;;17.02;7.93;;;;;;;10.97;100.00;102574.00;5268320;28;20036;-71
2022/05/08 03:24:14;;;;;;;20.27;7.45;;;;;;;10.91;100.00;102577.19;5280433;28;20019;-71
2022/05/08 03:26:45;;;;;;;25.63;7.85;;;;;;;10.84;100.00;102571.44;5284330;28;20024;-71
2022/05/08 03:29:15;;;;;;;18.73;7.90;;;;;;;10.78;100.00;102577.34;5281714;28;20024;-71
2022/05/08 03:31:46;;;;;;;17.27;8.90;;;;;;;10.70;100.00;102571.75;5269209;28;20111;-71
2022/05/08 03:34:17;;;;;;;18.83;7.93;;;;;;;10.63;100.00;102566.88;5281616;28;20073;-70
2022/05/08 03:36:47;;;;;;;17.00;7.47;;;;;;;10.58;100.00;102576.28;5276730;28;20039;-70
2022/05/08 03:39:18;;;;;;;13.40;7.05;;;;;;;10.49;100.00;102571.63;5275239;27;20011;-70
2022/05/08 03:41:48;;;;;;;19.52;7.82;;;;;;;10.41;100.00;102569.59;5278923;27;20020;-71
2022/05/08 03:44:19;;;;;;;14.90;6.97;;;;;;;10.32;100.00;102579.22;5270997;28;20086;-72
2022/05/08 03:46:49;;;;;;;19.55;7.50;;;;;;;10.23;100.00;102577.22;5277631;28;20024;-71
2022/05/08 03:49:20;;;;;;;17.77;8.35;;;;;;;10.18;100.00;102581.25;5267954;28;20055;-70
2022/05/08 03:51:51;;;;;;;20.13;7.85;;;;;;;10.15;100.00;102584.19;5281069;28;20029;-70
2022/05/08 03:54:21;;;;;;;22.52;9.18;;;;;;;10.12;100.00;102582.59;5274996;28;20421;-70
2022/05/08 03:56:52;;;;;;;17.60;8.40;;;;;;;10.11;100.00;102589.78;5274847;28;20095;-69
2022/05/08 03:59:22;;;;;;;20.80;9.20;;;;;;;10.11;100.00;102584.44;5273913;28;20023;-69
2022/05/08 04:01:55;;;;;;;21.25;10.05;;;;;;;10.17;100.00;102591.13;5275480;28;20028;-71
2022/05/08 04:04:25;;;;;;;23.70;10.02;;;;;;;10.22;100.00;102588.94;5279813;28;20030;-70
2022/05/08 04:06:55;;;;;;;20.73;9.20;;;;;;;10.27;100.00;102591.28;5281206;28;20031;-70
2022/05/08 04:09:27;;;;;;;21.15;9.73;;;;;;;10.33;100.00;102585.44;5277108;28;20068;-71
2022/05/08 04:11:58;;;;;;;20.30;10.00;;;;;;;10.42;100.00;102587.38;5275091;28;20047;-70
2022/05/08 04:14:28;;;;;;;21.00;9.98;;;;;;;10.46;100.00;102594.22;5278721;28;20051;-70
2022/05/08 04:16:59;;;;;;;21.60;9.73;;;;;;;10.48;100.00;102591.41;5267461;28;20043;-70
2022/05/08 04:19:30;;;;;;;18.88;9.35;;;;;;;10.47;100.00;102598.59;5280373;28;20027;-70
2022/05/08 04:24:51;;;;;;;24.98;9.50;;;;;;;10.44;100.00;102603.34;5281131;28;20121;-70
2022/05/08 04:27:21;;;;;;;27.70;11.18;;;;;;;10.44;100.00;102606.03;5267107;28;20024;-71
2022/05/08 04:29:52;;;;;;;27.10;11.65;;;;;;;10.44;100.00;102606.91;5279930;28;20389;-70
2022/05/08 04:32:22;;;;;;;20.17;9.73;;;;;;;10.44;100.00;102609.59;5266890;28;20484;-70
2022/05/08 04:34:53;;;;;;;20.23;10.95;;;;;;;10.45;100.00;102615.81;5271994;28;20485;-70
2022/05/08 04:37:23;;;;;;;21.92;9.38;;;;;;;10.47;100.00;102619.22;5274618;28;20103;-70
2022/05/08 04:39:54;;;;;;;31.00;10.52;;;;;;;10.53;100.00;102621.41;5288074;28;20018;-70
2022/05/08 04:42:25;;;;;;;21.92;10.85;;;;;;;10.58;100.00;102625.44;5274411;28;20032;-70
2022/05/08 04:44:56;;;;;;;20.80;10.73;;;;;;;10.64;100.00;102618.72;5287669;28;20225;-70
2022/05/08 04:47:28;;;;;;;23.27;10.00;;;;;;;10.71;100.00;102624.47;5274333;28;20023;-70
2022/05/08 04:49:58;;;;;;;26.88;11.57;;;;;;;10.77;100.00;102624.81;5288196;28;20020;-70
2022/05/08 04:52:29;;;;;;;23.08;11.00;;;;;;;10.84;100.00;102635.88;5283386;28;20388;-69
2022/05/08 04:55:03;;;;;;;19.92;10.90;;;;;;;10.90;100.00;102630.03;5266553;28;20120;-70
2022/05/08 04:57:33;;;;;;;23.00;11.20;;;;;;;10.92;100.00;102628.06;5266260;28;20412;-70
2022/05/08 05:00:04;;;;;;;23.85;10.20;;;;;;;10.99;100.00;102633.78;5280406;28;20019;-70
2022/05/08 05:02:35;;;;;;;26.48;11.27;;;;;;;11.05;100.00;102641.38;5274072;28;20385;-70
2022/05/08 05:05:06;;;;;;;24.58;11.50;;;;;;;11.09;100.00;102640.09;5286365;28;20027;-70
2022/05/08 05:07:39;;;;;;;22.85;11.75;;;;;;;11.16;100.00;102635.97;5273718;28;20027;-70
2022/05/08 05:10:12;;;;;;;24.50;10.45;;;;;;;11.24;100.00;102646.91;5280141;28;20115;-70
2022/05/08 05:12:43;;;;;;;21.83;10.77;;;;;;;11.27;100.00;102643.97;5276978;28;20030;-70
2022/05/08 05:15:13;;;;;;;22.17;11.35;;;;;;;11.32;100.00;102649.81;5276704;28;20536;-70
2022/05/08 05:17:44;;;;;;;22.15;10.48;;;;;;;11.36;100.00;102650.44;5266498;28;20024;-70
2022/05/08 05:20:14;;;;;;;26.85;10.27;;;;;;;11.37;100.00;102652.13;5271919;28;20103;-70
2022/05/08 05:22:45;;;;;;;28.83;11.25;;;;;;;11.49;100.00;102655.63;5273904;28;20048;-71
2022/05/08 05:25:15;;;;;;;20.48;10.70;;;;;;;11.49;100.00;102656.47;5279701;28;20026;-70
2022/05/08 05:27:46;;;;;;;25.25;9.85;;;;;;;11.52;100.00;102664.28;5280452;28;20393;-71
2022/05/08 05:30:17;;;;;;;26.38;10.85;;;;;;;11.58;100.00;102663.78;5278980;28;20485;-70
2022/05/08 05:32:48;;;;;;;25.67;9.95;;;;;;;11.61;100.00;102673.44;5267616;28;20031;-70
2022/05/08 05:35:18;;;;;;;24.73;10.38;;;;;;;11.66;100.00;102674.75;5287140;28;20129;-70
2022/05/08 05:37:49;;;;;;;23.80;11.25;;;;;;;11.70;100.00;102669.09;5280944;28;20059;-70
2022/05/08 05:40:20;;;;;;;30.02;11.50;;;;;;;11.71;100.00;102676.19;5277451;28;20082;-70
2022/05/08 05:42:52;;;;;;;26.45;9.52;;;;;;;11.77;100.00;102675.66;5272078;28;20052;-70
2022/05/08 05:45:22;;;;;;;22.13;10.25;;;;;;;11.73;100.00;102676.91;5273330;28;20038;-70
2022/05/08 05:47:53;;;;;;;21.00;10.30;;;;;;;11.68;100.00;102682.66;5268237;28;20723;-70
2022/05/08 05:50:24;;;;;;;27.85;11.00;;;;;;;11.68;100.00;102688.03;5276856;28;20031;-70
2022/05/08 05:52:54;;;;;;;23.65;9.60;;;;;;;11.56;100.00;102681.88;5284750;28;20020;-70
2022/05/08 05:55:25;;;;;;;27.52;10.30;;;;;;;11.59;100.00;102680.75;5284024;28;20099;-70
2022/05/08 05:57:55;;;;;;;25.52;10.45;;;;;;;11.57;100.00;102691.63;5283183;28;20287;-70
2022/05/08 06:00:27;;;;;;;19.23;9.48;;;;;;;11.59;100.00;102688.81;5284294;28;20107;-70
2022/05/08 06:02:57;;;;;;;23.25;9.77;;;;;;;11.53;100.00;102692.00;5273789;28;20039;-70
2022/05/08 06:05:28;;;;;;;25.80;9.50;;;;;;;11.55;100.00;102698.13;5281611;28;20023;-70
2022/05/08 06:07:58;;;;;;;22.05;9.48;;;;;;;11.46;100.00;102693.53;5271790;28;20392;-70
2022/05/08 06:10:29;;;;;;;17.25;8.45;;;;;;;11.43;100.00;102704.50;5282453;28;20023;-70
2022/05/08 06:12:59;;;;;;;25.48;8.80;;;;;;;11.35;100.00;102707.84;5271231;28;20027;-70
2022/05/08 06:15:30;;;;;;;24.40;8.65;;;;;;;11.27;100.00;102708.47;5269730;28;20030;-70
2022/05/08 06:18:00;;;;;;;22.20;8.68;;;;;;;11.33;100.00;102717.84;5264676;28;20485;-70
2022/05/08 06:20:32;;;;;;;23.42;9.02;;;;;;;11.37;100.00;102712.09;5284819;28;20407;-70
2022/05/08 06:23:02;;;;;;;29.90;8.23;;;;;;;11.45;100.00;102713.31;5285401;28;20295;-70
2022/05/08 06:25:33;;;;;;;23.05;8.25;;;;;;;11.49;100.00;102715.59;5285477;28;20153;-70
2022/05/08 06:28:04;;;;;;;24.27;8.57;;;;;;;11.62;100.00;102720.81;5285107;28;20028;-70
2022/05/08 06:30:35;;;;;;;24.35;9.93;;;;;;;11.78;100.00;102717.72;5285366;28;20497;-70
2022/05/08 06:33:05;;;;;;;18.00;8.40;;;;;;;12.00;100.00;102725.72;5284752;28;20046;-70
2022/05/08 06:35:39;;;;;;;22.45;8.48;;;;;;;12.28;100.00;102720.66;5285030;28;20055;-70
2022/05/08 06:38:10;;;;;;;20.83;7.95;;;;;;;12.49;100.00;102724.19;5271952;28;20078;-70
2022/05/08 06:40:41;;;;;;;19.77;8.00;;;;;;;12.68;100.00;102726.97;5285441;28;20026;-70
2022/05/08 06:43:12;;;;;;;18.13;8.32;;;;;;;12.84;100.00;102721.09;5276950;28;20024;-70
2022/05/08 06:45:42;;;;;;;22.75;8.23;;;;;;;12.95;100.00;102728.22;5265686;28;20081;-70
2022/05/08 06:48:13;;;;;;;23.63;8.45;;;;;;;12.97;100.00;102726.25;5285069;28;20082;-70
2022/05/08 06:50:43;;;;;;;17.00;7.00;;;;;;;13.22;100.00;102735.72;5281433;28;20389;-69
2022/05/08 06:53:14;;;;;;;23.58;7.68;;;;;;;13.27;100.00;102725.38;5266849;28;20046;-70
2022/05/08 06:55:45;;;;;;;26.95;8.10;;;;;;;13.36;100.00;102729.97;5286210;28;20020;-70
2022/05/08 06:58:16;;;;;;;24.38;7.30;;;;;;;13.54;100.00;102731.97;5288357;28;20027;-70
2022/05/08 07:03:36;;;;;;;18.70;7.50;;;;;;;14.32;100.00;102740.91;5286394;28;20361;-70
2022/05/08 07:06:07;;;;;;;17.88;7.55;;;;;;;14.27;100.00;102743.19;5277697;28;20080;-71
2022/05/08 07:08:38;;;;;;;19.75;7.40;;;;;;;14.23;100.00;102742.59;5283912;28;20560;-70
2022/05/08 07:11:09;;;;;;;19.85;6.97;;;;;;;14.11;100.00;102744.63;5279124;28;20023;-70
2022/05/08 07:13:39;;;;;;;25.27;7.47;;;;;;;13.96;100.00;102743.34;5275390;28;20450;-70
2022/05/08 07:16:10;;;;;;;20.58;6.25;;;;;;;13.84;100.00;102749.88;5275205;28;20472;-70
2022/05/08 07:18:40;;;;;;;18.88;6.20;;;;;;;13.81;100.00;102748.31;5287567;28;20377;-70
2022/05/08 07:21:11;;;;;;;19.67;6.85;;;;;;;14.30;100.00;102753.66;5287047;28;20066;-70
2022/05/08 07:23:42;;;;;;;20.88;7.22;;;;;;;15.40;100.00;102743.88;5267517;28;20020;-70
2022/05/08 07:26:13;;;;;;;17.80;6.00;;;;;;;16.02;100.00;102744.06;5282202;28;20023;-70
2022/05/08 07:28:44;;;;;;;17.33;5.88;;;;;;;16.88;100.00;102752.28;5288205;28;20042;-71
2022/05/08 07:31:15;;;;;;;22.17;6.53;;;;;;;17.11;100.00;102746.28;5288420;28;20027;-71
2022/05/08 07:33:45;;;;;;;22.40;6.55;;;;;;;16.71;100.00;102747.72;5286667;28;20051;-71
2022/05/08 07:36:15;;;;;;;14.05;5.22;;;;;;;16.50;100.00;102754.38;5287339;28;20023;-70
2022/05/08 07:38:46;;;;;;;19.35;5.88;;;;;;;16.29;100.00;102749.34;5275820;28;20540;-71
2022/05/08 07:41:17;;;;;;;13.15;5.90;;;;;;;16.04;100.00;102745.56;5286101;28;20023;-71
2022/05/08 07:43:48;;;;;;;18.85;5.88;;;;;;;16.11;100.00;102748.50;5287877;28;20027;-71
2022/05/08 07:46:18;;;;;;;17.98;6.78;;;;;;;16.68;100.00;102748.94;5273747;28;20547;-70
2022/05/08 07:48:49;;;;;;;13.63;5.22;;;;;;;17.19;100.00;102751.75;5287485;27;20031;-71
2022/05/08 07:51:19;;;;;;;19.50;6.90;;;;;;;17.73;100.00;102747.69;5287962;27;20087;-70
2022/05/08 07:53:50;;;;;;;21.10;5.55;;;;;;;17.18;100.00;102747.34;5287824;28;20114;-72
2022/05/08 07:56:20;;;;;;;17.55;5.18;;;;;;;16.54;100.00;102747.66;5286871;28;20066;-71
2022/05/08 07:58:51;;;;;;;15.50;4.85;;;;;;;16.62;100.00;102746.88;5287581;28;20556;-71
2022/05/08 08:01:21;;;;;;;18.63;5.78;;;;;;;16.80;100.00;102754.94;5287443;28;20444;-70
2022/05/08 08:03:52;;;;;;;16.15;5.28;;;;;;;16.99;100.00;102752.00;5273307;28;20023;-71
2022/05/08 08:06:22;;;;;;;18.33;4.88;;;;;;;17.03;100.00;102761.50;5287004;28;20055;-71
2022/05/08 08:08:54;;;;;;;15.57;4.75;;;;;;;16.63;100.00;102756.69;5281165;28;20370;-71
2022/05/08 08:11:25;;;;;;;16.10;5.10;;;;;;;16.88;100.00;102762.28;5278579;28;20035;-71
2022/05/08 08:13:55;;;;;;;17.50;5.03;;;;;;;17.27;100.00;102752.63;5286801;28;20106;-71
2022/05/08 08:16:26;;;;;;;13.38;4.35;;;;;;;17.66;95.48;102756.63;5272860;28;20031;-71
2022/05/08 08:18:58;;;;;;;14.30;4.63;;;;;;;17.57;89.96;102763.88;5279278;28;20070;-71
2022/05/08 08:21:28;;;;;;;12.20;4.93;;;;;;;18.21;93.94;102761.44;5278549;28;20062;-71
2022/05/08 08:23:59;;;;;;;22.27;5.97;;;;;;;18.10;88.20;102773.50;5275214;28;20103;-71
2022/05/08 08:26:29;;;;;;;12.23;4.88;;;;;;;18.38;88.39;102765.88;5284059;28;20039;-71
2022/05/08 08:29:00;;;;;;;14.77;5.07;;;;;;;18.68;83.73;102761.59;5276066;28;20030;-72
2022/05/08 08:31:30;;;;;;;17.83;5.25;;;;;;;19.45;87.89;102763.69;5272573;28;20028;-71
2022/05/08 08:34:01;;;;;;;22.90;5.65;;;;;;;20.02;82.63;102764.16;5274727;28;20034;-71
2022/05/08 08:36:31;;;;;;;14.82;4.32;;;;;;;20.75;76.41;102762.66;5282636;28;20080;-71
2022/05/08 08:39:02;;;;;;;17.63;4.80;;;;;;;21.16;76.10;102762.16;5286038;28;20423;-71
2022/05/08 08:41:36;;;;;;;12.05;4.80;;;;;;;20.78;74.55;102761.41;5278431;28;20396;-71
2022/05/08 08:49:52;;;;;;;14.30;4.68;;;;;;;21.44;68.42;102759.63;5286271;28;20091;-71
2022/05/08 08:52:26;;;;;;;11.65;4.50;;;;;;;20.99;69.90;102761.53;5272194;28;20526;-72
2022/05/08 08:54:57;;;;;;;13.98;4.70;;;;;;;21.12;66.49;102767.16;5285885;28;20370;-72
2022/05/08 08:57:27;;;;;;;16.90;5.47;;;;;;;20.85;69.22;102760.50;5280740;28;20036;-71
2022/05/08 08:59:58;;;;;;;12.75;3.80;;;;;;;20.29;66.46;102753.72;5265308;28;20508;-72
2022/05/08 09:02:28;;;;;;;9.93;3.92;;;;;;;20.84;67.91;102753.34;5285014;28;20038;-72
2022/05/08 09:05:04;;;;;;;17.67;4.38;;;;;;;21.29;67.92;102745.97;5285956;28;20057;-71
2022/05/08 09:07:34;;;;;;;16.98;5.85;;;;;;;21.57;67.21;102756.16;5273083;28;20036;-71
2022/05/08 09:10:20;;;;;;;15.50;4.35;;;;;;;21.67;63.44;102752.09;5264881;28;20027;-72
2022/05/08 09:12:51;;;;;;;;;;;;;;;21.97;63.95;102754.69;5265747;28;20531;-72
2022/05/08 09:15:24;;;;;;;15.77;5.10;;;;;;;21.96;63.33;102763.94;5283188;28;19914;-72
2022/05/08 09:17:58;;;;;;;12.77;4.25;;;;;;;21.47;62.90;102753.75;5285451;28;20023;-71
2022/05/08 09:20:43;;;;;;;13.00;3.53;;;;;;;22.05;63.48;102756.47;5277998;28;20032;-71
2022/05/08 09:23:16;;;;;;;17.40;4.93;;;;;;;20.71;62.00;102761.34;5281204;28;20649;-72
2022/05/08 09:25:47;;;;;;;12.45;3.75;;;;;;;20.46;63.21;102754.41;5286036;27;20031;-71
2022/05/08 09:28:19;;;;;;;11.38;3.80;;;;;;;20.76;65.80;102756.16;5284818;28;20085;-71
2022/05/08 09:31:04;;;;;;;11.43;3.80;;;;;;;21.20;64.57;102764.31;5273835;28;20504;-71
2022/05/08 09:33:37;;;;;;;11.53;4.23;;;;;;;20.42;62.01;102764.81;5272539;28;20028;-71
2022/05/08 09:36:11;;;;;;;12.80;4.03;;;;;;;20.50;62.35;102756.63;5285231;28;20348;-72
2022/05/08 09:38:45;;;;;;;15.45;4.72;;;;;;;20.83;62.19;102750.78;5284909;28;20023;-71
2022/05/08 09:41:20;;;;;;;19.08;6.13;;;;;;;21.02;67.00;102754.84;5266560;28;20024;-71
2022/05/08 09:43:52;;;;;;;11.75;4.15;;;;;;;21.48;64.40;102754.59;5278300;28;20033;-71
2022/05/08 09:46:23;;;;;;;11.48;3.22;;;;;;;21.94;60.24;102757.84;5285430;28;20058;-72
2022/05/08 09:48:56;;;;;;;10.35;3.60;;;;;;;22.17;56.89;102754.91;5285115;28;20026;-71
2022/05/08 09:51:27;;;;;;;13.70;3.88;;;;;;;22.19;57.46;102753.69;5285340;28;20481;-71
2022/05/08 09:53:57;;;;;;;16.83;4.07;;;;;;;22.17;58.31;102754.91;5285458;28;20026;-72
2022/05/08 09:56:28;;;;;;;14.23;4.22;;;;;;;22.02;53.61;102754.09;5285162;28;20050;-72
2022/05/08 09:59:00;;;;;;;16.48;3.40;;;;;;;21.71;54.37;102758.00;5285116;28;20023;-71
2022/05/08 10:01:31;;;;;;;11.52;3.72;;;;;;;22.48;53.34;102758.09;5285253;28;20058;-72
2022/05/08 10:04:03;;;;;;;13.07;2.78;;;;;;;22.29;54.64;102760.66;5285375;28;20023;-71
2022/05/08 10:06:37;;;;;;;13.52;4.25;;;;;;;22.31;55.61;102751.25;5284882;28;20541;-72
2022/05/08 10:15:39;;;;;;;11.48;3.30;;;;;;;21.54;49.08;102742.94;5273483;28;20477;-71
2022/05/08 10:18:21;;;;;;;22.70;4.15;;;;;;;21.18;50.69;102736.34;5270861;28;20058;-71
2022/05/08 10:21:04;;;;;;;14.32;3.38;;;;;;;20.95;52.67;102735.66;5285071;28;20072;-72
2022/05/08 10:23:37;;;;;;;15.52;3.75;;;;;;;21.12;53.89;102731.66;5271146;28;20032;-72
2022/05/08 10:26:20;;;;;;;12.48;3.65;;;;;;;21.42;53.25;102734.38;5285002;28;20048;-72
2022/05/08 10:29:01;;;;;;;12.82;3.28;;;;;;;21.98;51.60;102732.63;5288745;28;20046;-71
2022/05/08 10:31:50;;;;;;;15.95;3.60;;;;;;;21.89;52.39;102728.38;5289129;28;20023;-71
2022/05/08 10:34:40;;;;;;;10.38;3.10;;;;;;;22.12;53.01;102730.91;5274132;28;20059;-71
2022/05/08 10:37:11;;;;;;;14.35;3.95;;;;;;;22.23;52.38;102721.31;5288693;28;20299;-71
2022/05/08 10:39:45;;;;;;;13.43;3.15;;;;;;;22.34;51.18;102723.53;5289133;27;20019;-72
2022/05/08 10:42:27;;;;;;;11.68;2.58;;;;;;;21.65;44.79;102724.13;5275099;27;20026;-72
2022/05/08 10:44:59;;;;;;;7.35;2.33;;;;;;;21.19;43.65;102723.59;5276998;28;20062;-71
2022/05/08 10:47:48;;;;;;;8.15;2.53;;;;;;;20.76;46.06;102728.88;5288249;28;20027;-72
2022/05/08 10:50:19;;;;;;;9.88;2.60;;;;;;;20.61;46.53;102717.13;5288904;27;20023;-71
2022/05/08 10:52:50;;;;;;;10.70;2.83;;;;;;;20.59;44.64;102717.31;5289153;28;20028;-72
2022/05/08 10:55:21;;;;;;;10.45;2.55;;;;;;;21.10;49.87;102716.53;5288185;28;20500;-71
2022/05/08 10:57:53;;;;;;;7.70;1.73;;;;;;;20.55;46.39;102720.63;5288547;28;20054;-71
2022/05/08 11:00:27;;;;;;;7.38;2.10;;;;;;;20.42;49.16;102722.06;5286754;28;20023;-72
2022/05/08 11:03:00;;;;;;;7.13;2.40;;;;;;;20.80;49.95;102718.44;5288634;28;20028;-71
2022/05/08 11:05:32;;;;;;;9.68;2.60;;;;;;;21.30;48.70;102720.38;5288444;28;20026;-72
2022/05/08 11:08:04;;;;;;;12.75;3.38;;;;;;;20.68;48.04;102726.25;5288381;28;20081;-72
2022/05/08 11:10:37;;;;;;;11.00;2.60;;;;;;;20.93;47.80;102724.94;5274458;28;20050;-72
2022/05/08 11:13:10;;;;;;;9.57;2.42;;;;;;;20.92;48.91;102719.66;5275255;28;20051;-73
2022/05/08 11:15:41;;;;;;;5.40;1.70;;;;;;;20.51;46.87;102711.09;5272331;28;20420;-71
2022/05/08 11:18:15;;;;;;;12.15;2.00;;;;;;;20.65;48.47;102704.81;5282130;28;20069;-71
2022/05/08 11:21:03;;;;;;;6.00;1.50;;;;;;;21.20;50.60;102711.63;5287611;28;20484;-71
2022/05/08 11:23:53;;;;;;;10.13;2.58;;;;;;;21.37;47.66;102707.66;5269369;28;20607;-72
2022/05/08 11:26:42;;;;;;;9.45;2.25;;;;;;;21.48;47.75;102716.38;5282083;28;20028;-72
2022/05/08 11:29:15;;;;;;;12.07;2.35;;;;;;;21.45;49.62;102707.53;5288071;28;20088;-72
2022/05/08 11:36:04;;;;;;;5.63;2.35;;;;;;;21.84;49.54;102714.44;5288184;28;20103;-71
2022/05/08 11:37:24;;;;;;;11.48;2.75;;;;;;;21.56;49.02;102699.88;5285846;28;20447;-72
2022/05/08 11:39:55;;;;;;;11.25;2.75;;;;;;;21.92;50.19;102699.78;5279786;28;20302;-72
2022/05/08 11:42:27;;;;;;;8.98;2.65;;;;;;;22.15;51.02;102700.44;5282050;28;20107;-71
2022/05/08 11:45:16;;;;;;;8.48;1.90;;;;;;;22.10;47.37;102693.84;5287579;28;20027;-73
2022/05/08 11:48:05;;;;;;;11.77;2.58;;;;;;;21.77;49.70;102697.13;5286998;28;20542;-72
2022/05/08 11:50:35;;;;;;;9.68;2.38;;;;;;;21.74;48.21;102692.09;5285732;28;20110;-72
2022/05/08 11:53:06;;;;;;;10.55;2.70;;;;;;;21.01;48.52;102687.66;5276344;28;20479;-72
2022/05/08 11:55:55;;;;;;;7.88;1.80;;;;;;;21.22;48.82;102693.16;5270563;28;20024;-72
2022/05/08 11:58:44;;;;;;;8.25;2.10;;;;;;;21.51;48.80;102683.22;5278961;28;20427;-72
2022/05/08 12:01:28;;;;;;;6.75;2.03;;;;;;;21.89;48.36;102687.38;5287260;28;20030;-72
2022/05/08 12:04:34;;;;;;;9.82;2.30;;;;;;;22.48;46.76;102689.72;5273852;28;20378;-72
2022/05/08 12:07:05;;;;;;;8.77;2.08;;;;;;;22.23;46.71;102685.75;5281884;28;20057;-72
2022/05/08 12:09:55;;;;;;;6.45;2.10;;;;;;;21.26;42.95;102678.09;5276439;28;20067;-72